createdAt,value
2019-05-14T00:00:38.596Z,98142.04
2019-05-14T00:04:42.230Z,98139.58
2019-05-14T00:08:44.081Z,98138.45
2019-05-14T00:12:45.992Z,98137.74
2019-05-14T00:16:47.901Z,98132.48
2019-05-14T00:20:51.187Z,98138.03
2019-05-14T00:24:53.432Z,98126.87
2019-05-14T00:28:56.389Z,98127.50
2019-05-14T00:32:58.277Z,98115.02
2019-05-14T00:37:01.561Z,98105.15
2019-05-14T00:41:03.911Z,98103.34
2019-05-14T00:45:08.622Z,98100.72
2019-05-14T00:49:11.914Z,98099.58
2019-05-14T00:53:13.967Z,98096.78
2019-05-14T00:57:15.869Z,98094.16
2019-05-14T01:01:17.772Z,98094.00
2019-05-14T01:05:21.547Z,98088.76
2019-05-14T01:09:23.248Z,98090.41
2019-05-14T01:13:25.517Z,98084.66
2019-05-14T01:17:27.442Z,98080.59
2019-05-14T01:21:31.154Z,98081.56
2019-05-14T01:25:32.929Z,98080.89
2019-05-14T01:29:34.850Z,98080.95
2019-05-14T01:33:36.741Z,98079.42
2019-05-14T01:37:38.700Z,98083.88
2019-05-14T01:41:42.377Z,98081.61
2019-05-14T01:45:44.489Z,98085.97
2019-05-14T01:49:46.400Z,98077.45
2019-05-14T01:53:48.285Z,98082.69
2019-05-14T01:57:51.839Z,98076.30
2019-05-14T02:01:53.830Z,98068.75
2019-05-14T02:05:56.620Z,98075.66
2019-05-14T02:10:00.974Z,98070.98
2019-05-14T02:14:02.555Z,98074.92
2019-05-14T02:18:04.482Z,98075.80
2019-05-14T02:22:06.427Z,98065.59
2019-05-14T02:26:08.330Z,98066.23
2019-05-14T02:30:11.537Z,98060.98
2019-05-14T02:34:13.450Z,98059.77
2019-05-14T02:38:15.348Z,98049.58
2019-05-14T02:42:19.750Z,98048.72
2019-05-14T02:46:21.851Z,98051.63
2019-05-14T02:50:24.101Z,98050.62
2019-05-14T02:54:29.454Z,98052.00
2019-05-14T02:58:30.170Z,98043.28
2019-05-14T03:02:32.914Z,98048.89
2019-05-14T03:06:34.878Z,98041.66
2019-05-14T03:10:39.992Z,98040.63
2019-05-14T03:14:40.624Z,98046.62
2019-05-14T03:18:44.284Z,98035.95
2019-05-14T03:23:01.716Z,98038.64
2019-05-14T03:26:50.339Z,98045.50
2019-05-14T03:30:53.343Z,98042.96
2019-05-14T03:35:02.898Z,98042.96
2019-05-14T03:39:01.616Z,98040.02
2019-05-14T03:43:03.940Z,98039.68
2019-05-14T03:47:09.949Z,98042.58
2019-05-14T03:51:09.515Z,98044.64
2019-05-14T03:55:11.636Z,98041.66
2019-05-14T03:59:14.830Z,98039.03
2019-05-14T04:03:19.837Z,98032.19
2019-05-14T04:07:23.740Z,98036.97
2019-05-14T04:11:31.117Z,98024.66
2019-05-14T04:15:39.194Z,98019.50
2019-05-14T04:19:42.937Z,98022.62
2019-05-14T04:23:51.243Z,98021.81
2019-05-14T04:27:55.199Z,98016.88
2019-05-14T04:32:00.106Z,98019.30
2019-05-14T04:36:02.748Z,98011.66
2019-05-14T04:40:10.044Z,98010.14
2019-05-14T04:44:11.140Z,98010.73
2019-05-14T04:48:27.344Z,98009.45
2019-05-14T04:52:20.258Z,98014.92
2019-05-14T04:56:20.693Z,98020.34
2019-05-14T05:00:22.583Z,98025.80
2019-05-14T05:04:24.585Z,98020.08
2019-05-14T05:08:26.502Z,98027.63
2019-05-14T05:12:29.641Z,98026.00
2019-05-14T05:16:31.663Z,98044.70
2019-05-14T05:20:34.243Z,98031.56
2019-05-14T05:24:38.147Z,98038.48
2019-05-14T05:28:39.771Z,98035.88
2019-05-14T05:32:41.653Z,98043.06
2019-05-14T05:36:43.564Z,98048.59
2019-05-14T05:40:45.444Z,98040.97
2019-05-14T05:44:48.323Z,98041.00
2019-05-14T05:48:50.334Z,98038.44
2019-05-14T05:52:53.843Z,98043.23
2019-05-14T05:56:58.190Z,98037.44
2019-05-14T06:01:00.161Z,98044.19
2019-05-14T06:05:02.139Z,98040.83
2019-05-14T06:09:08.705Z,98036.34
2019-05-14T06:13:13.501Z,98034.18
2019-05-14T06:17:13.736Z,98029.50
2019-05-14T06:21:15.615Z,98034.33
2019-05-14T06:25:20.891Z,98021.16
2019-05-14T06:29:21.119Z,98019.45
2019-05-14T06:33:23.005Z,98023.00
2019-05-14T06:37:24.910Z,98022.89
2019-05-14T06:41:33.568Z,98026.70
2019-05-14T06:45:35.449Z,98026.31
2019-05-14T06:49:38.565Z,98026.22
2019-05-14T06:53:40.964Z,98023.45
2019-05-14T06:57:43.452Z,98022.85
2019-05-14T07:01:45.359Z,98014.67
2019-05-14T07:05:49.252Z,98013.89
2019-05-14T07:09:50.997Z,98013.45
2019-05-14T07:13:52.904Z,98009.66
2019-05-14T07:17:54.801Z,97996.46
2019-05-14T07:21:58.303Z,98000.80
2019-05-14T07:26:00.403Z,98001.36
2019-05-14T07:30:02.308Z,97997.02
2019-05-14T07:34:05.308Z,97997.89
2019-05-14T07:38:08.967Z,97997.00
2019-05-14T07:42:10.801Z,97990.97
2019-05-14T07:46:12.695Z,97980.38
2019-05-14T07:50:15.595Z,97982.63
2019-05-14T07:54:19.473Z,97978.42
2019-05-14T07:58:21.085Z,97975.24
2019-05-14T08:02:22.976Z,97966.86
2019-05-14T08:06:28.030Z,97961.72
2019-05-14T08:10:29.461Z,97959.89
2019-05-14T08:14:42.639Z,97963.72
2019-05-14T08:18:35.043Z,97940.63
2019-05-14T08:22:38.288Z,97955.78
2019-05-14T08:26:42.901Z,97956.30
2019-05-14T08:30:43.952Z,97940.19
2019-05-14T08:34:47.843Z,97943.84
2019-05-14T08:38:50.235Z,97932.78
2019-05-14T08:42:52.337Z,97922.10
2019-05-14T08:46:54.241Z,97927.19
2019-05-14T08:50:58.727Z,97928.56
2019-05-14T08:55:11.065Z,97922.36
2019-05-14T08:59:04.561Z,97926.95
2019-05-14T09:03:08.477Z,97922.25
2019-05-14T09:07:10.157Z,97927.46
2019-05-14T09:11:12.072Z,97921.70
2019-05-14T09:15:14.378Z,97922.53
2019-05-14T09:19:16.285Z,97921.95
2019-05-14T09:23:19.030Z,97925.21
2019-05-14T09:27:21.185Z,97924.70
2019-05-14T09:31:23.097Z,97905.74
2019-05-14T09:35:25.006Z,97891.29
2019-05-14T09:39:28.956Z,97892.19
2019-05-14T09:43:30.608Z,97898.38
2019-05-14T09:47:32.572Z,97892.34
2019-05-14T09:51:34.488Z,97876.05
2019-05-14T09:55:38.689Z,97893.20
2019-05-14T09:59:40.277Z,97887.28
2019-05-14T10:03:42.209Z,97884.11
2019-05-14T10:07:44.116Z,97872.88
2019-05-14T10:11:48.069Z,97866.07
2019-05-14T10:15:49.855Z,97852.05
2019-05-14T10:19:51.770Z,97846.96
2019-05-14T10:23:53.723Z,97848.03
2019-05-14T10:27:59.017Z,97855.06
2019-05-14T10:32:00.564Z,97845.09
2019-05-14T10:36:02.503Z,97849.69
2019-05-14T10:40:10.100Z,97841.88
2019-05-14T10:44:10.827Z,97850.67
2019-05-14T10:48:12.742Z,97839.55
2019-05-14T10:52:14.652Z,97829.55
2019-05-14T10:56:19.319Z,97809.73
2019-05-14T11:00:21.102Z,97799.47
2019-05-14T11:04:23.024Z,97788.88
2019-05-14T11:08:24.949Z,97796.59
2019-05-14T11:12:29.489Z,97794.89
2019-05-14T11:16:30.475Z,97799.80
2019-05-14T11:20:32.388Z,97787.05
2019-05-14T11:24:34.405Z,97775.33
2019-05-14T11:28:39.233Z,97761.73
2019-05-14T11:32:40.015Z,97754.03
2019-05-14T11:36:41.953Z,97762.11
2019-05-14T11:40:43.855Z,97764.52
2019-05-14T11:44:45.852Z,97761.97
2019-05-14T11:48:49.098Z,97752.61
2019-05-14T11:52:51.238Z,97751.87
2019-05-14T11:56:53.153Z,97756.90
2019-05-14T12:00:55.075Z,97745.60
2019-05-14T12:04:56.977Z,97756.04
2019-05-14T12:08:59.252Z,97747.87
2019-05-14T12:13:01.177Z,97752.00
2019-05-14T12:17:03.264Z,97741.06
2019-05-14T12:21:05.165Z,97746.02
2019-05-14T12:25:08.292Z,97731.76
2019-05-14T12:29:10.341Z,97741.25
2019-05-14T12:33:12.554Z,97737.64
2019-05-14T12:37:14.473Z,97730.77
2019-05-14T12:41:19.200Z,97729.78
2019-05-14T12:45:20.489Z,97721.15
2019-05-14T12:49:22.404Z,97720.58
2019-05-14T12:53:24.499Z,97721.09
2019-05-14T12:57:26.409Z,97716.54
2019-05-14T13:01:29.191Z,97710.22
2019-05-14T13:05:31.093Z,97709.74
2019-05-14T13:09:33.013Z,97696.96
2019-05-14T13:13:34.919Z,97712.41
2019-05-14T13:17:38.891Z,97699.39
2019-05-14T13:21:40.469Z,97688.32
2019-05-14T13:25:42.391Z,97689.08
2019-05-14T13:29:44.305Z,97706.37
2019-05-14T13:33:48.615Z,97719.30
2019-05-14T13:37:49.845Z,97711.92
2019-05-14T13:41:51.719Z,97705.76
2019-05-14T13:45:53.661Z,97698.25
2019-05-14T13:49:59.098Z,97689.61
2019-05-14T13:54:00.400Z,97710.12
2019-05-14T13:58:02.317Z,97713.05
2019-05-14T14:02:04.319Z,97727.84
2019-05-14T14:06:10.053Z,97710.34
2019-05-14T14:10:10.780Z,97702.22
2019-05-14T14:14:12.671Z,97690.22
2019-05-14T14:18:14.603Z,97703.50
2019-05-14T14:22:19.086Z,97689.19
2019-05-14T14:26:20.191Z,97674.91
2019-05-14T14:30:22.161Z,97657.84
2019-05-14T14:34:24.070Z,97640.06
2019-05-14T14:38:25.970Z,97632.38
2019-05-14T14:42:29.744Z,97626.76
2019-05-14T14:46:31.550Z,97634.22
2019-05-14T14:50:33.523Z,97626.86
2019-05-14T14:54:35.480Z,97624.98
2019-05-14T14:58:39.349Z,97620.92
2019-05-14T15:02:41.595Z,97616.19
2019-05-14T15:06:43.618Z,97620.76
2019-05-14T15:10:48.566Z,97619.00
2019-05-14T15:14:50.298Z,97610.09
2019-05-14T15:18:52.194Z,97592.84
2019-05-14T15:22:54.122Z,97589.86
2019-05-14T15:27:06.530Z,97595.31
2019-05-14T15:31:00.732Z,97606.36
2019-05-14T15:35:02.815Z,97616.61
2019-05-14T15:39:09.624Z,97645.41
2019-05-14T15:43:11.281Z,97638.27
2019-05-14T15:47:13.209Z,97639.00
2019-05-14T15:51:15.397Z,97660.59
2019-05-14T15:55:18.344Z,97652.91
2019-05-14T15:59:21.786Z,97659.86
2019-05-14T16:03:23.711Z,97691.13
2019-05-14T16:07:25.618Z,97679.94
2019-05-14T16:11:29.226Z,97696.28
2019-05-14T16:15:32.251Z,97689.70
2019-05-14T16:19:34.145Z,97682.13
2019-05-14T16:23:38.765Z,97682.72
2019-05-14T16:27:40.809Z,97679.24
2019-05-14T16:31:43.698Z,97679.47
2019-05-14T16:35:45.692Z,97676.37
2019-05-14T16:39:48.875Z,97680.41
2019-05-14T16:43:51.063Z,97671.55
2019-05-14T16:47:52.952Z,97678.67
2019-05-14T16:51:54.854Z,97684.59
2019-05-14T16:55:57.092Z,97685.46
2019-05-14T16:59:59.019Z,97670.70
2019-05-14T17:04:00.910Z,97673.81
2019-05-14T17:08:02.889Z,97667.94
2019-05-14T17:12:04.941Z,97674.03
2019-05-14T17:16:08.657Z,97668.89
2019-05-14T17:20:11.155Z,97665.66
2019-05-14T17:24:13.066Z,97678.19
2019-05-14T17:28:18.961Z,97671.64
2019-05-14T17:32:20.944Z,97668.99
2019-05-14T17:36:22.836Z,97671.21
2019-05-14T17:40:24.775Z,97669.38
2019-05-14T17:44:26.688Z,97670.58
2019-05-14T17:48:28.692Z,97669.77
2019-05-14T17:52:30.616Z,97663.73
2019-05-14T17:56:32.568Z,97672.34
2019-05-14T18:00:34.454Z,97667.23
2019-05-14T18:04:36.345Z,97663.88
2019-05-14T18:08:38.324Z,97663.72
2019-05-14T18:12:40.262Z,97669.70
2019-05-14T18:16:42.144Z,97668.83
2019-05-14T18:20:44.127Z,97673.70
2019-05-14T18:24:48.545Z,97670.94
2019-05-14T18:28:49.649Z,97670.20
2019-05-14T18:32:51.549Z,97675.02
2019-05-14T18:36:53.435Z,97675.63
2019-05-14T18:40:55.341Z,97672.22
2019-05-14T18:44:59.030Z,97672.22
2019-05-14T18:49:01.779Z,97674.63
2019-05-14T18:53:03.670Z,97672.36
2019-05-14T18:57:05.591Z,97669.96
2019-05-14T19:01:08.086Z,97674.20
2019-05-14T19:05:11.398Z,97666.52
2019-05-14T19:09:13.375Z,97670.27
2019-05-14T19:13:15.274Z,97671.70
2019-05-14T19:17:18.710Z,97664.75
2019-05-14T19:21:20.747Z,97668.45
2019-05-14T19:25:22.627Z,97663.18
2019-05-14T19:29:24.524Z,97663.80
2019-05-14T19:33:28.533Z,97668.91
2019-05-14T19:37:30.108Z,97667.51
2019-05-14T19:41:32.016Z,97661.86
2019-05-14T19:45:33.894Z,97659.06
2019-05-14T19:49:38.055Z,97653.41
2019-05-14T19:53:39.440Z,97656.80
2019-05-14T19:57:41.364Z,97646.97
2019-05-14T20:01:43.274Z,97645.97
2019-05-14T20:05:45.788Z,97643.27
2019-05-14T20:09:48.310Z,97649.51
2019-05-14T20:13:50.383Z,97646.61
2019-05-14T20:17:52.290Z,97638.52
2019-05-14T20:21:54.183Z,97643.09
2019-05-14T20:25:58.692Z,97639.65
2019-05-14T20:30:00.686Z,97631.88
2019-05-14T20:34:02.587Z,97635.47
2019-05-14T20:38:04.468Z,97624.05
2019-05-14T20:42:08.978Z,97623.06
2019-05-14T20:46:10.161Z,97615.95
2019-05-14T20:50:12.666Z,97611.30
2019-05-14T20:54:14.569Z,97608.75
2019-05-14T20:58:19.557Z,97607.77
2019-05-14T21:02:20.085Z,97609.42
2019-05-14T21:06:22.008Z,97605.20
2019-05-14T21:10:23.907Z,97605.50
2019-05-14T21:14:25.807Z,97603.74
2019-05-14T21:18:35.289Z,97600.98
2019-05-14T21:22:31.298Z,97593.66
2019-05-14T21:26:33.188Z,97598.15
2019-05-14T21:30:35.402Z,97593.88
2019-05-14T21:34:38.162Z,97583.13
2019-05-14T21:38:41.116Z,97584.25
2019-05-14T21:42:43.153Z,97578.30
2019-05-14T21:46:45.051Z,97575.11
2019-05-14T21:50:46.946Z,97580.30
2019-05-14T21:54:58.618Z,97572.08
2019-05-14T21:59:01.330Z,97570.83
2019-05-14T22:03:04.946Z,97576.97
2019-05-14T22:07:08.963Z,97572.92
2019-05-14T22:11:10.687Z,97567.37
2019-05-14T22:15:13.121Z,97570.33
2019-05-14T22:19:15.098Z,97563.89
2019-05-14T22:23:18.316Z,97571.27
2019-05-14T22:27:20.584Z,97560.55
2019-05-14T22:31:22.470Z,97561.58
2019-05-14T22:35:24.362Z,97561.66
2019-05-14T22:39:26.365Z,97563.77
2019-05-14T22:43:28.798Z,97557.88
2019-05-14T22:47:30.837Z,97558.02
2019-05-14T22:51:33.284Z,97564.20
2019-05-14T22:55:35.308Z,97554.87
2019-05-14T22:59:39.226Z,97547.86
2019-05-14T23:03:40.806Z,97558.78
2019-05-14T23:07:42.698Z,97553.78
2019-05-14T23:11:44.601Z,97549.13
2019-05-14T23:15:48.148Z,97548.79
2019-05-14T23:19:50.141Z,97457.86
2019-05-14T23:23:53.312Z,97543.53
2019-05-14T23:27:55.198Z,97532.42
2019-05-14T23:31:59.414Z,97532.13
2019-05-14T23:36:01.382Z,97533.47
2019-05-14T23:40:03.839Z,97522.66
2019-05-14T23:44:08.170Z,97518.91
2019-05-14T23:48:09.739Z,97514.08
2019-05-14T23:52:11.834Z,97508.23
2019-05-14T23:56:13.716Z,97500.70
